sensor_id;sensor_type;location;lat;lon;timestamp;P1;durP1;ratioP1;P2;durP2;ratioP2
7051;SDS011;3567;52.444;13.556;2024-01-30T00:01:18;12.88;;;6.88;;
7051;SDS011;3567;52.444;13.556;2024-01-30T00:03:43;13.27;;;7.25;;
7051;SDS011;3567;52.444;13.556;2024-01-30T00:06:09;11.25;;;6.43;;
7051;SDS011;3567;52.444;13.556;2024-01-30T00:08:34;11.50;;;7.40;;
7051;SDS011;3567;52.444;13.556;2024-01-30T00:10:59;12.32;;;6.55;;
7051;SDS011;3567;52.444;13.556;2024-01-30T00:13:25;12.63;;;6.72;;
7051;SDS011;3567;52.444;13.556;2024-01-30T00:15:51;20.25;;;8.00;;
7051;SDS011;3567;52.444;13.556;2024-01-30T00:18:16;12.00;;;6.32;;
7051;SDS011;3567;52.444;13.556;2024-01-30T00:20:41;11.38;;;6.40;;
7051;SDS011;3567;52.444;13.556;2024-01-30T00:23:08;14.65;;;7.10;;
7051;SDS011;3567;52.444;13.556;2024-01-30T00:25:33;11.65;;;6.47;;
7051;SDS011;3567;52.444;13.556;2024-01-30T00:27:59;9.25;;;6.00;;
7051;SDS011;3567;52.444;13.556;2024-01-30T00:30:24;11.25;;;6.50;;
7051;SDS011;3567;52.444;13.556;2024-01-30T00:32:49;14.27;;;7.18;;
7051;SDS011;3567;52.444;13.556;2024-01-30T00:35:15;13.20;;;6.93;;
7051;SDS011;3567;52.444;13.556;2024-01-30T00:37:40;14.05;;;7.35;;
7051;SDS011;3567;52.444;13.556;2024-01-30T00:40:05;12.93;;;7.13;;
7051;SDS011;3567;52.444;13.556;2024-01-30T00:42:31;15.13;;;7.45;;
7051;SDS011;3567;52.444;13.556;2024-01-30T00:44:57;13.52;;;6.78;;
7051;SDS011;3567;52.444;13.556;2024-01-30T00:47:22;12.20;;;6.25;;
7051;SDS011;3567;52.444;13.556;2024-01-30T00:49:48;9.93;;;6.05;;
7051;SDS011;3567;52.444;13.556;2024-01-30T00:52:13;13.52;;;7.35;;
7051;SDS011;3567;52.444;13.556;2024-01-30T00:54:38;11.40;;;6.70;;
7051;SDS011;3567;52.444;13.556;2024-01-30T00:57:04;12.00;;;6.95;;
7051;SDS011;3567;52.444;13.556;2024-01-30T00:59:29;10.00;;;6.72;;
7051;SDS011;3567;52.444;13.556;2024-01-30T01:01:55;13.88;;;7.15;;
7051;SDS011;3567;52.444;13.556;2024-01-30T01:04:20;24.55;;;7.10;;
7051;SDS011;3567;52.444;13.556;2024-01-30T01:06:46;14.20;;;6.93;;
7051;SDS011;3567;52.444;13.556;2024-01-30T01:09:12;10.73;;;6.10;;
7051;SDS011;3567;52.444;13.556;2024-01-30T01:11:37;10.73;;;5.93;;
7051;SDS011;3567;52.444;13.556;2024-01-30T01:14:03;10.00;;;5.72;;
7051;SDS011;3567;52.444;13.556;2024-01-30T01:16:29;12.32;;;6.32;;
7051;SDS011;3567;52.444;13.556;2024-01-30T01:18:55;9.43;;;5.85;;
7051;SDS011;3567;52.444;13.556;2024-01-30T01:21:20;11.75;;;5.75;;
7051;SDS011;3567;52.444;13.556;2024-01-30T01:23:45;12.30;;;6.45;;
7051;SDS011;3567;52.444;13.556;2024-01-30T01:26:11;12.10;;;6.63;;
7051;SDS011;3567;52.444;13.556;2024-01-30T01:28:36;18.80;;;6.90;;
7051;SDS011;3567;52.444;13.556;2024-01-30T01:31:01;13.20;;;6.63;;
7051;SDS011;3567;52.444;13.556;2024-01-30T01:33:31;13.02;;;7.13;;
7051;SDS011;3567;52.444;13.556;2024-01-30T01:35:58;14.00;;;6.60;;
7051;SDS011;3567;52.444;13.556;2024-01-30T01:38:23;13.48;;;6.72;;
7051;SDS011;3567;52.444;13.556;2024-01-30T01:40:49;11.38;;;5.97;;
7051;SDS011;3567;52.444;13.556;2024-01-30T01:43:14;13.38;;;6.68;;
7051;SDS011;3567;52.444;13.556;2024-01-30T01:45:39;9.45;;;6.50;;
7051;SDS011;3567;52.444;13.556;2024-01-30T01:48:05;9.30;;;6.22;;
7051;SDS011;3567;52.444;13.556;2024-01-30T01:50:31;10.20;;;6.53;;
7051;SDS011;3567;52.444;13.556;2024-01-30T01:52:57;9.80;;;7.25;;
7051;SDS011;3567;52.444;13.556;2024-01-30T01:55:23;10.93;;;6.20;;
7051;SDS011;3567;52.444;13.556;2024-01-30T01:57:52;9.55;;;5.93;;
7051;SDS011;3567;52.444;13.556;2024-01-30T02:00:18;12.20;;;6.68;;
7051;SDS011;3567;52.444;13.556;2024-01-30T02:02:45;10.25;;;6.85;;
7051;SDS011;3567;52.444;13.556;2024-01-30T02:05:11;11.00;;;6.50;;
7051;SDS011;3567;52.444;13.556;2024-01-30T02:07:37;10.95;;;6.15;;
7051;SDS011;3567;52.444;13.556;2024-01-30T02:10:02;14.55;;;6.68;;
7051;SDS011;3567;52.444;13.556;2024-01-30T02:12:28;14.23;;;7.28;;
7051;SDS011;3567;52.444;13.556;2024-01-30T02:14:54;15.55;;;8.30;;
7051;SDS011;3567;52.444;13.556;2024-01-30T02:17:20;13.70;;;6.97;;
7051;SDS011;3567;52.444;13.556;2024-01-30T02:19:45;13.43;;;7.22;;
7051;SDS011;3567;52.444;13.556;2024-01-30T02:22:11;14.02;;;7.03;;
7051;SDS011;3567;52.444;13.556;2024-01-30T02:24:37;13.30;;;7.05;;
7051;SDS011;3567;52.444;13.556;2024-01-30T02:27:02;13.15;;;7.10;;
7051;SDS011;3567;52.444;13.556;2024-01-30T02:29:28;15.50;;;6.95;;
7051;SDS011;3567;52.444;13.556;2024-01-30T02:31:53;11.68;;;6.80;;
7051;SDS011;3567;52.444;13.556;2024-01-30T02:34:19;14.73;;;7.65;;
7051;SDS011;3567;52.444;13.556;2024-01-30T02:36:44;11.70;;;6.97;;
7051;SDS011;3567;52.444;13.556;2024-01-30T02:39:10;13.40;;;6.97;;
7051;SDS011;3567;52.444;13.556;2024-01-30T02:41:35;15.90;;;8.43;;
7051;SDS011;3567;52.444;13.556;2024-01-30T02:44:01;11.77;;;6.25;;
7051;SDS011;3567;52.444;13.556;2024-01-30T02:46:28;12.07;;;6.85;;
7051;SDS011;3567;52.444;13.556;2024-01-30T02:48:53;20.17;;;6.90;;
7051;SDS011;3567;52.444;13.556;2024-01-30T02:51:18;12.70;;;7.10;;
7051;SDS011;3567;52.444;13.556;2024-01-30T02:53:44;11.15;;;6.32;;
7051;SDS011;3567;52.444;13.556;2024-01-30T02:56:09;12.00;;;6.72;;
7051;SDS011;3567;52.444;13.556;2024-01-30T02:58:37;12.07;;;6.85;;
7051;SDS011;3567;52.444;13.556;2024-01-30T03:01:03;15.85;;;7.85;;
7051;SDS011;3567;52.444;13.556;2024-01-30T03:03:29;11.23;;;6.53;;
7051;SDS011;3567;52.444;13.556;2024-01-30T03:05:54;10.93;;;6.20;;
7051;SDS011;3567;52.444;13.556;2024-01-30T03:08:19;10.45;;;6.95;;
7051;SDS011;3567;52.444;13.556;2024-01-30T03:10:46;10.75;;;6.00;;
7051;SDS011;3567;52.444;13.556;2024-01-30T03:13:11;12.23;;;6.60;;
7051;SDS011;3567;52.444;13.556;2024-01-30T03:15:37;12.45;;;6.75;;
7051;SDS011;3567;52.444;13.556;2024-01-30T03:18:02;9.60;;;6.30;;
7051;SDS011;3567;52.444;13.556;2024-01-30T03:20:31;14.50;;;5.78;;
7051;SDS011;3567;52.444;13.556;2024-01-30T03:22:56;42.60;;;14.20;;
7051;SDS011;3567;52.444;13.556;2024-01-30T03:25:22;15.43;;;8.00;;
7051;SDS011;3567;52.444;13.556;2024-01-30T03:27:47;18.02;;;7.07;;
7051;SDS011;3567;52.444;13.556;2024-01-30T03:30:12;12.20;;;7.20;;
7051;SDS011;3567;52.444;13.556;2024-01-30T03:32:38;12.20;;;6.85;;
7051;SDS011;3567;52.444;13.556;2024-01-30T03:35:03;14.02;;;7.25;;
7051;SDS011;3567;52.444;13.556;2024-01-30T03:37:29;17.50;;;8.13;;
7051;SDS011;3567;52.444;13.556;2024-01-30T03:39:54;12.27;;;6.93;;
7051;SDS011;3567;52.444;13.556;2024-01-30T03:42:20;14.23;;;8.13;;
7051;SDS011;3567;52.444;13.556;2024-01-30T03:44:46;12.50;;;7.05;;
7051;SDS011;3567;52.444;13.556;2024-01-30T03:47:11;12.57;;;6.38;;
7051;SDS011;3567;52.444;13.556;2024-01-30T03:49:36;13.25;;;6.78;;
7051;SDS011;3567;52.444;13.556;2024-01-30T03:52:02;13.52;;;7.15;;
7051;SDS011;3567;52.444;13.556;2024-01-30T03:54:27;12.50;;;6.82;;
7051;SDS011;3567;52.444;13.556;2024-01-30T03:56:52;17.38;;;7.82;;
7051;SDS011;3567;52.444;13.556;2024-01-30T03:59:18;12.52;;;7.28;;
7051;SDS011;3567;52.444;13.556;2024-01-30T04:01:48;12.30;;;6.90;;
7051;SDS011;3567;52.444;13.556;2024-01-30T04:04:14;14.55;;;7.15;;
7051;SDS011;3567;52.444;13.556;2024-01-30T04:06:40;9.77;;;5.78;;
7051;SDS011;3567;52.444;13.556;2024-01-30T04:09:06;14.52;;;7.00;;
7051;SDS011;3567;52.444;13.556;2024-01-30T04:11:32;12.85;;;6.95;;
7051;SDS011;3567;52.444;13.556;2024-01-30T04:13:57;14.30;;;7.80;;
7051;SDS011;3567;52.444;13.556;2024-01-30T04:16:23;12.32;;;6.88;;
7051;SDS011;3567;52.444;13.556;2024-01-30T04:18:50;12.27;;;6.78;;
7051;SDS011;3567;52.444;13.556;2024-01-30T04:21:16;13.95;;;6.85;;
7051;SDS011;3567;52.444;13.556;2024-01-30T04:23:42;14.10;;;7.72;;
7051;SDS011;3567;52.444;13.556;2024-01-30T04:26:07;14.73;;;8.02;;
7051;SDS011;3567;52.444;13.556;2024-01-30T04:28:32;15.40;;;8.35;;
7051;SDS011;3567;52.444;13.556;2024-01-30T04:30:58;15.85;;;8.75;;
7051;SDS011;3567;52.444;13.556;2024-01-30T04:33:23;15.73;;;7.78;;
7051;SDS011;3567;52.444;13.556;2024-01-30T04:35:49;11.82;;;7.93;;
7051;SDS011;3567;52.444;13.556;2024-01-30T04:38:14;11.25;;;6.72;;
7051;SDS011;3567;52.444;13.556;2024-01-30T04:40:40;14.55;;;8.05;;
7051;SDS011;3567;52.444;13.556;2024-01-30T04:43:05;11.65;;;7.38;;
7051;SDS011;3567;52.444;13.556;2024-01-30T04:45:30;14.55;;;7.03;;
7051;SDS011;3567;52.444;13.556;2024-01-30T04:47:56;11.43;;;6.85;;
7051;SDS011;3567;52.444;13.556;2024-01-30T04:50:21;12.68;;;6.50;;
7051;SDS011;3567;52.444;13.556;2024-01-30T04:52:47;18.73;;;7.88;;
7051;SDS011;3567;52.444;13.556;2024-01-30T04:55:12;14.30;;;8.00;;
7051;SDS011;3567;52.444;13.556;2024-01-30T04:57:37;20.55;;;8.38;;
7051;SDS011;3567;52.444;13.556;2024-01-30T05:00:03;15.35;;;8.43;;
7051;SDS011;3567;52.444;13.556;2024-01-30T05:02:28;12.55;;;7.10;;
7051;SDS011;3567;52.444;13.556;2024-01-30T05:04:54;17.88;;;8.25;;
7051;SDS011;3567;52.444;13.556;2024-01-30T05:07:19;16.33;;;7.45;;
7051;SDS011;3567;52.444;13.556;2024-01-30T05:09:45;11.30;;;7.65;;
7051;SDS011;3567;52.444;13.556;2024-01-30T05:12:10;15.27;;;7.70;;
7051;SDS011;3567;52.444;13.556;2024-01-30T05:14:35;16.90;;;7.78;;
7051;SDS011;3567;52.444;13.556;2024-01-30T05:17:01;12.93;;;7.63;;
7051;SDS011;3567;52.444;13.556;2024-01-30T05:19:28;10.60;;;6.60;;
7051;SDS011;3567;52.444;13.556;2024-01-30T05:21:53;11.30;;;7.40;;
7051;SDS011;3567;52.444;13.556;2024-01-30T05:24:18;17.30;;;10.27;;
7051;SDS011;3567;52.444;13.556;2024-01-30T05:26:44;11.23;;;8.25;;
7051;SDS011;3567;52.444;13.556;2024-01-30T05:29:09;11.55;;;8.32;;
7051;SDS011;3567;52.444;13.556;2024-01-30T05:31:34;16.92;;;8.82;;
7051;SDS011;3567;52.444;13.556;2024-01-30T05:34:00;15.88;;;8.43;;
7051;SDS011;3567;52.444;13.556;2024-01-30T05:36:25;11.80;;;7.07;;
7051;SDS011;3567;52.444;13.556;2024-01-30T05:38:51;12.15;;;7.85;;
7051;SDS011;3567;52.444;13.556;2024-01-30T05:41:16;24.42;;;12.70;;
7051;SDS011;3567;52.444;13.556;2024-01-30T05:43:41;16.05;;;9.30;;
7051;SDS011;3567;52.444;13.556;2024-01-30T05:46:07;15.82;;;8.85;;
7051;SDS011;3567;52.444;13.556;2024-01-30T05:48:32;19.45;;;9.27;;
7051;SDS011;3567;52.444;13.556;2024-01-30T05:50:58;14.93;;;8.18;;
7051;SDS011;3567;52.444;13.556;2024-01-30T05:53:24;14.60;;;7.88;;
7051;SDS011;3567;52.444;13.556;2024-01-30T05:55:50;17.50;;;8.70;;
7051;SDS011;3567;52.444;13.556;2024-01-30T05:58:15;14.85;;;8.32;;
7051;SDS011;3567;52.444;13.556;2024-01-30T06:00:41;17.63;;;10.60;;
7051;SDS011;3567;52.444;13.556;2024-01-30T06:03:07;22.90;;;12.10;;
7051;SDS011;3567;52.444;13.556;2024-01-30T06:05:32;20.60;;;10.93;;
7051;SDS011;3567;52.444;13.556;2024-01-30T06:07:57;21.75;;;9.75;;
7051;SDS011;3567;52.444;13.556;2024-01-30T06:10:23;14.93;;;8.88;;
7051;SDS011;3567;52.444;13.556;2024-01-30T06:12:48;19.75;;;9.90;;
7051;SDS011;3567;52.444;13.556;2024-01-30T06:15:14;18.33;;;10.32;;
7051;SDS011;3567;52.444;13.556;2024-01-30T06:17:39;20.05;;;9.35;;
7051;SDS011;3567;52.444;13.556;2024-01-30T06:20:05;16.55;;;9.93;;
7051;SDS011;3567;52.444;13.556;2024-01-30T06:22:31;19.83;;;10.35;;
7051;SDS011;3567;52.444;13.556;2024-01-30T06:24:56;19.15;;;10.30;;
7051;SDS011;3567;52.444;13.556;2024-01-30T06:27:22;17.88;;;9.63;;
7051;SDS011;3567;52.444;13.556;2024-01-30T06:29:47;16.83;;;9.25;;
7051;SDS011;3567;52.444;13.556;2024-01-30T06:32:12;11.82;;;8.55;;
7051;SDS011;3567;52.444;13.556;2024-01-30T06:34:38;15.27;;;9.57;;
7051;SDS011;3567;52.444;13.556;2024-01-30T06:37:05;22.00;;;9.88;;
7051;SDS011;3567;52.444;13.556;2024-01-30T06:39:30;18.38;;;8.98;;
7051;SDS011;3567;52.444;13.556;2024-01-30T06:41:55;12.98;;;8.60;;
7051;SDS011;3567;52.444;13.556;2024-01-30T06:44:21;20.20;;;8.93;;
7051;SDS011;3567;52.444;13.556;2024-01-30T06:46:47;20.95;;;9.25;;
7051;SDS011;3567;52.444;13.556;2024-01-30T06:49:12;19.90;;;9.77;;
7051;SDS011;3567;52.444;13.556;2024-01-30T06:51:37;19.92;;;8.65;;
7051;SDS011;3567;52.444;13.556;2024-01-30T06:54:03;12.20;;;8.15;;
7051;SDS011;3567;52.444;13.556;2024-01-30T06:56:28;16.60;;;9.00;;
7051;SDS011;3567;52.444;13.556;2024-01-30T06:58:54;16.65;;;9.13;;
7051;SDS011;3567;52.444;13.556;2024-01-30T07:01:20;19.50;;;9.98;;
7051;SDS011;3567;52.444;13.556;2024-01-30T07:03:46;17.88;;;9.38;;
7051;SDS011;3567;52.444;13.556;2024-01-30T07:06:11;18.05;;;9.98;;
7051;SDS011;3567;52.444;13.556;2024-01-30T07:08:37;19.25;;;9.57;;
7051;SDS011;3567;52.444;13.556;2024-01-30T07:11:04;17.52;;;10.73;;
7051;SDS011;3567;52.444;13.556;2024-01-30T07:13:32;19.80;;;10.82;;
7051;SDS011;3567;52.444;13.556;2024-01-30T07:15:59;14.75;;;9.23;;
7051;SDS011;3567;52.444;13.556;2024-01-30T07:18:24;18.98;;;10.27;;
7051;SDS011;3567;52.444;13.556;2024-01-30T07:20:50;17.67;;;9.05;;
7051;SDS011;3567;52.444;13.556;2024-01-30T07:23:15;17.08;;;10.73;;
7051;SDS011;3567;52.444;13.556;2024-01-30T07:25:46;21.65;;;9.50;;
7051;SDS011;3567;52.444;13.556;2024-01-30T07:28:13;19.02;;;10.00;;
7051;SDS011;3567;52.444;13.556;2024-01-30T07:30:42;16.83;;;9.77;;
7051;SDS011;3567;52.444;13.556;2024-01-30T07:33:07;19.55;;;9.70;;
7051;SDS011;3567;52.444;13.556;2024-01-30T07:35:33;20.42;;;11.57;;
7051;SDS011;3567;52.444;13.556;2024-01-30T07:37:59;19.25;;;10.48;;
7051;SDS011;3567;52.444;13.556;2024-01-30T07:40:24;18.27;;;9.73;;
7051;SDS011;3567;52.444;13.556;2024-01-30T07:42:50;21.25;;;9.82;;
7051;SDS011;3567;52.444;13.556;2024-01-30T07:45:15;15.85;;;9.52;;
7051;SDS011;3567;52.444;13.556;2024-01-30T07:47:41;15.77;;;10.10;;
7051;SDS011;3567;52.444;13.556;2024-01-30T07:50:07;19.02;;;10.50;;
7051;SDS011;3567;52.444;13.556;2024-01-30T07:52:33;19.42;;;10.85;;
7051;SDS011;3567;52.444;13.556;2024-01-30T07:54:58;21.20;;;11.00;;
7051;SDS011;3567;52.444;13.556;2024-01-30T07:57:24;18.98;;;10.48;;
7051;SDS011;3567;52.444;13.556;2024-01-30T07:59:49;17.05;;;9.60;;
7051;SDS011;3567;52.444;13.556;2024-01-30T08:02:15;25.00;;;11.02;;
7051;SDS011;3567;52.444;13.556;2024-01-30T08:04:40;16.60;;;9.88;;
7051;SDS011;3567;52.444;13.556;2024-01-30T08:07:06;20.23;;;10.68;;
7051;SDS011;3567;52.444;13.556;2024-01-30T08:09:31;21.13;;;11.63;;
7051;SDS011;3567;52.444;13.556;2024-01-30T08:11:56;21.45;;;10.50;;
7051;SDS011;3567;52.444;13.556;2024-01-30T08:14:22;16.77;;;10.35;;
7051;SDS011;3567;52.444;13.556;2024-01-30T08:16:47;20.42;;;11.18;;
7051;SDS011;3567;52.444;13.556;2024-01-30T08:19:14;17.00;;;9.80;;
7051;SDS011;3567;52.444;13.556;2024-01-30T08:21:39;16.15;;;9.43;;
7051;SDS011;3567;52.444;13.556;2024-01-30T08:24:05;19.20;;;10.93;;
7051;SDS011;3567;52.444;13.556;2024-01-30T08:26:31;14.65;;;9.45;;
7051;SDS011;3567;52.444;13.556;2024-01-30T08:28:57;14.57;;;9.68;;
7051;SDS011;3567;52.444;13.556;2024-01-30T08:31:22;20.17;;;10.32;;
7051;SDS011;3567;52.444;13.556;2024-01-30T08:33:48;14.52;;;9.80;;
7051;SDS011;3567;52.444;13.556;2024-01-30T08:36:13;17.35;;;10.55;;
7051;SDS011;3567;52.444;13.556;2024-01-30T08:38:39;17.85;;;10.70;;
7051;SDS011;3567;52.444;13.556;2024-01-30T08:41:04;20.45;;;10.77;;
7051;SDS011;3567;52.444;13.556;2024-01-30T08:43:30;15.90;;;9.82;;
7051;SDS011;3567;52.444;13.556;2024-01-30T08:45:55;15.75;;;9.75;;
7051;SDS011;3567;52.444;13.556;2024-01-30T08:48:24;30.70;;;17.60;;
7051;SDS011;3567;52.444;13.556;2024-01-30T08:50:50;19.55;;;12.57;;
7051;SDS011;3567;52.444;13.556;2024-01-30T08:53:15;14.95;;;10.77;;
7051;SDS011;3567;52.444;13.556;2024-01-30T08:55:41;16.38;;;9.75;;
7051;SDS011;3567;52.444;13.556;2024-01-30T08:58:06;16.88;;;12.25;;
7051;SDS011;3567;52.444;13.556;2024-01-30T09:00:31;15.60;;;10.75;;
7051;SDS011;3567;52.444;13.556;2024-01-30T09:02:57;14.13;;;10.27;;
7051;SDS011;3567;52.444;13.556;2024-01-30T09:05:22;16.65;;;9.60;;
7051;SDS011;3567;52.444;13.556;2024-01-30T09:07:47;16.00;;;10.38;;
7051;SDS011;3567;52.444;13.556;2024-01-30T09:10:13;14.48;;;9.65;;
7051;SDS011;3567;52.444;13.556;2024-01-30T09:12:38;12.57;;;9.52;;
7051;SDS011;3567;52.444;13.556;2024-01-30T09:15:04;13.48;;;10.18;;
7051;SDS011;3567;52.444;13.556;2024-01-30T09:17:29;19.38;;;10.40;;
7051;SDS011;3567;52.444;13.556;2024-01-30T09:19:55;17.08;;;10.98;;
7051;SDS011;3567;52.444;13.556;2024-01-30T09:22:21;27.15;;;10.70;;
7051;SDS011;3567;52.444;13.556;2024-01-30T09:24:46;14.45;;;10.00;;
7051;SDS011;3567;52.444;13.556;2024-01-30T09:27:11;15.35;;;9.55;;
7051;SDS011;3567;52.444;13.556;2024-01-30T09:29:37;12.63;;;8.55;;
7051;SDS011;3567;52.444;13.556;2024-01-30T09:32:02;15.45;;;8.80;;
7051;SDS011;3567;52.444;13.556;2024-01-30T09:34:29;13.15;;;8.43;;
7051;SDS011;3567;52.444;13.556;2024-01-30T09:36:54;15.00;;;8.07;;
7051;SDS011;3567;52.444;13.556;2024-01-30T09:39:19;14.73;;;8.15;;
7051;SDS011;3567;52.444;13.556;2024-01-30T09:41:48;16.10;;;7.20;;
7051;SDS011;3567;52.444;13.556;2024-01-30T09:44:18;15.35;;;7.95;;
7051;SDS011;3567;52.444;13.556;2024-01-30T09:46:46;10.98;;;7.03;;
7051;SDS011;3567;52.444;13.556;2024-01-30T09:49:13;14.63;;;7.35;;
7051;SDS011;3567;52.444;13.556;2024-01-30T09:51:39;16.00;;;7.82;;
7051;SDS011;3567;52.444;13.556;2024-01-30T09:54:05;10.50;;;7.15;;
7051;SDS011;3567;52.444;13.556;2024-01-30T09:56:33;10.18;;;6.50;;
7051;SDS011;3567;52.444;13.556;2024-01-30T09:58:58;11.68;;;7.10;;
7051;SDS011;3567;52.444;13.556;2024-01-30T10:01:24;11.55;;;7.35;;
7051;SDS011;3567;52.444;13.556;2024-01-30T10:03:50;10.23;;;6.45;;
7051;SDS011;3567;52.444;13.556;2024-01-30T10:06:17;10.70;;;6.55;;
7051;SDS011;3567;52.444;13.556;2024-01-30T10:08:43;15.40;;;6.65;;
7051;SDS011;3567;52.444;13.556;2024-01-30T10:11:09;10.13;;;5.90;;
7051;SDS011;3567;52.444;13.556;2024-01-30T10:13:34;13.73;;;6.57;;
7051;SDS011;3567;52.444;13.556;2024-01-30T10:16:00;10.57;;;6.35;;
7051;SDS011;3567;52.444;13.556;2024-01-30T10:18:28;11.25;;;6.45;;
7051;SDS011;3567;52.444;13.556;2024-01-30T10:20:53;14.40;;;6.03;;
7051;SDS011;3567;52.444;13.556;2024-01-30T10:23:19;8.95;;;5.47;;
7051;SDS011;3567;52.444;13.556;2024-01-30T10:25:45;10.18;;;5.97;;
7051;SDS011;3567;52.444;13.556;2024-01-30T10:28:11;10.07;;;5.60;;
7051;SDS011;3567;52.444;13.556;2024-01-30T10:30:36;10.35;;;6.25;;
7051;SDS011;3567;52.444;13.556;2024-01-30T10:33:01;7.65;;;5.95;;
7051;SDS011;3567;52.444;13.556;2024-01-30T10:35:27;12.77;;;5.85;;
7051;SDS011;3567;52.444;13.556;2024-01-30T10:37:52;6.88;;;5.68;;
7051;SDS011;3567;52.444;13.556;2024-01-30T10:40:21;12.32;;;5.57;;
7051;SDS011;3567;52.444;13.556;2024-01-30T10:42:53;13.35;;;7.35;;
7051;SDS011;3567;52.444;13.556;2024-01-30T10:45:20;8.25;;;5.70;;
7051;SDS011;3567;52.444;13.556;2024-01-30T10:47:50;8.02;;;4.72;;
7051;SDS011;3567;52.444;13.556;2024-01-30T10:50:19;10.93;;;4.78;;
7051;SDS011;3567;52.444;13.556;2024-01-30T10:52:45;6.50;;;4.78;;
7051;SDS011;3567;52.444;13.556;2024-01-30T10:55:12;9.68;;;5.30;;
7051;SDS011;3567;52.444;13.556;2024-01-30T10:57:40;6.22;;;4.72;;
7051;SDS011;3567;52.444;13.556;2024-01-30T11:00:07;6.65;;;4.88;;
7051;SDS011;3567;52.444;13.556;2024-01-30T11:02:41;7.35;;;4.90;;
7051;SDS011;3567;52.444;13.556;2024-01-30T11:05:09;6.35;;;4.47;;
7051;SDS011;3567;52.444;13.556;2024-01-30T11:07:34;8.18;;;4.38;;
7051;SDS011;3567;52.444;13.556;2024-01-30T11:10:01;6.07;;;4.30;;
7051;SDS011;3567;52.444;13.556;2024-01-30T11:12:29;4.97;;;4.43;;
7051;SDS011;3567;52.444;13.556;2024-01-30T11:17:44;9.70;;;5.00;;
7051;SDS011;3567;52.444;13.556;2024-01-30T11:20:16;7.38;;;5.05;;
7051;SDS011;3567;52.444;13.556;2024-01-30T11:22:44;8.85;;;5.50;;
7051;SDS011;3567;52.444;13.556;2024-01-30T11:25:11;8.77;;;5.15;;
7051;SDS011;3567;52.444;13.556;2024-01-30T11:27:38;8.77;;;4.35;;
7051;SDS011;3567;52.444;13.556;2024-01-30T11:30:03;7.97;;;4.97;;
7051;SDS011;3567;52.444;13.556;2024-01-30T11:32:30;6.60;;;5.03;;
7051;SDS011;3567;52.444;13.556;2024-01-30T11:34:55;7.82;;;4.93;;
7051;SDS011;3567;52.444;13.556;2024-01-30T11:37:21;11.15;;;5.38;;
7051;SDS011;3567;52.444;13.556;2024-01-30T11:39:49;5.45;;;4.53;;
7051;SDS011;3567;52.444;13.556;2024-01-30T11:42:16;7.97;;;4.80;;
7051;SDS011;3567;52.444;13.556;2024-01-30T11:44:46;8.85;;;5.28;;
7051;SDS011;3567;52.444;13.556;2024-01-30T11:47:12;5.97;;;4.53;;
7051;SDS011;3567;52.444;13.556;2024-01-30T11:49:37;9.15;;;5.80;;
7051;SDS011;3567;52.444;13.556;2024-01-30T11:52:03;9.07;;;5.50;;
7051;SDS011;3567;52.444;13.556;2024-01-30T11:54:29;10.65;;;5.80;;
7051;SDS011;3567;52.444;13.556;2024-01-30T11:56:54;14.88;;;5.45;;
7051;SDS011;3567;52.444;13.556;2024-01-30T11:59:20;9.02;;;5.45;;
7051;SDS011;3567;52.444;13.556;2024-01-30T12:01:45;7.32;;;5.07;;
7051;SDS011;3567;52.444;13.556;2024-01-30T12:04:11;8.77;;;5.70;;
7051;SDS011;3567;52.444;13.556;2024-01-30T12:06:36;9.18;;;6.07;;
7051;SDS011;3567;52.444;13.556;2024-01-30T12:09:02;7.32;;;5.25;;
7051;SDS011;3567;52.444;13.556;2024-01-30T12:11:42;8.00;;;5.05;;
7051;SDS011;3567;52.444;13.556;2024-01-30T12:14:11;8.18;;;5.10;;
7051;SDS011;3567;52.444;13.556;2024-01-30T12:16:37;9.27;;;5.90;;
7051;SDS011;3567;52.444;13.556;2024-01-30T12:19:03;7.60;;;5.28;;
7051;SDS011;3567;52.444;13.556;2024-01-30T12:21:28;7.32;;;5.93;;
7051;SDS011;3567;52.444;13.556;2024-01-30T12:23:54;9.02;;;6.30;;
7051;SDS011;3567;52.444;13.556;2024-01-30T12:26:19;9.73;;;6.18;;
7051;SDS011;3567;52.444;13.556;2024-01-30T12:28:48;8.85;;;5.85;;
7051;SDS011;3567;52.444;13.556;2024-01-30T12:31:15;10.18;;;6.57;;
7051;SDS011;3567;52.444;13.556;2024-01-30T12:33:40;12.20;;;6.07;;
7051;SDS011;3567;52.444;13.556;2024-01-30T12:36:06;7.30;;;5.97;;
7051;SDS011;3567;52.444;13.556;2024-01-30T12:38:31;8.05;;;5.97;;
7051;SDS011;3567;52.444;13.556;2024-01-30T12:40:57;11.55;;;6.22;;
7051;SDS011;3567;52.444;13.556;2024-01-30T12:43:26;12.82;;;6.25;;
7051;SDS011;3567;52.444;13.556;2024-01-30T12:45:54;11.27;;;5.65;;
7051;SDS011;3567;52.444;13.556;2024-01-30T12:48:20;8.88;;;5.53;;
7051;SDS011;3567;52.444;13.556;2024-01-30T12:50:45;12.82;;;6.63;;
7051;SDS011;3567;52.444;13.556;2024-01-30T12:53:10;7.03;;;5.88;;
7051;SDS011;3567;52.444;13.556;2024-01-30T12:55:37;12.32;;;6.80;;
7051;SDS011;3567;52.444;13.556;2024-01-30T12:58:03;11.63;;;7.30;;
7051;SDS011;3567;52.444;13.556;2024-01-30T13:00:28;23.95;;;14.65;;
7051;SDS011;3567;52.444;13.556;2024-01-30T13:02:54;13.57;;;7.10;;
7051;SDS011;3567;52.444;13.556;2024-01-30T13:05:19;10.00;;;5.57;;
7051;SDS011;3567;52.444;13.556;2024-01-30T13:07:45;7.75;;;6.00;;
7051;SDS011;3567;52.444;13.556;2024-01-30T13:10:10;8.52;;;6.28;;
7051;SDS011;3567;52.444;13.556;2024-01-30T13:12:36;11.55;;;6.43;;
7051;SDS011;3567;52.444;13.556;2024-01-30T13:15:03;10.18;;;7.55;;
7051;SDS011;3567;52.444;13.556;2024-01-30T13:17:30;24.00;;;14.07;;
7051;SDS011;3567;52.444;13.556;2024-01-30T13:19:56;11.93;;;7.63;;
7051;SDS011;3567;52.444;13.556;2024-01-30T13:22:21;9.50;;;6.28;;
7051;SDS011;3567;52.444;13.556;2024-01-30T13:24:47;11.15;;;6.30;;
7051;SDS011;3567;52.444;13.556;2024-01-30T13:27:12;10.13;;;6.78;;
7051;SDS011;3567;52.444;13.556;2024-01-30T13:29:38;9.60;;;6.47;;
7051;SDS011;3567;52.444;13.556;2024-01-30T13:32:03;10.43;;;6.50;;
7051;SDS011;3567;52.444;13.556;2024-01-30T13:34:29;10.63;;;6.20;;
7051;SDS011;3567;52.444;13.556;2024-01-30T13:36:54;9.90;;;6.13;;
7051;SDS011;3567;52.444;13.556;2024-01-30T13:39:20;8.63;;;5.53;;
7051;SDS011;3567;52.444;13.556;2024-01-30T13:41:45;9.13;;;5.13;;
7051;SDS011;3567;52.444;13.556;2024-01-30T13:44:10;8.45;;;6.00;;
7051;SDS011;3567;52.444;13.556;2024-01-30T13:46:36;6.97;;;5.10;;
7051;SDS011;3567;52.444;13.556;2024-01-30T13:49:01;10.38;;;6.40;;
7051;SDS011;3567;52.444;13.556;2024-01-30T13:51:27;9.73;;;5.20;;
7051;SDS011;3567;52.444;13.556;2024-01-30T13:53:53;10.23;;;6.10;;
7051;SDS011;3567;52.444;13.556;2024-01-30T13:56:21;8.43;;;5.55;;
7051;SDS011;3567;52.444;13.556;2024-01-30T13:58:50;9.30;;;5.50;;
7051;SDS011;3567;52.444;13.556;2024-01-30T14:01:15;11.32;;;5.25;;
7051;SDS011;3567;52.444;13.556;2024-01-30T14:03:41;9.93;;;5.85;;
7051;SDS011;3567;52.444;13.556;2024-01-30T14:06:07;7.78;;;5.47;;
7051;SDS011;3567;52.444;13.556;2024-01-30T14:08:32;10.65;;;5.18;;
7051;SDS011;3567;52.444;13.556;2024-01-30T14:10:57;12.73;;;5.60;;
7051;SDS011;3567;52.444;13.556;2024-01-30T14:13:23;9.40;;;6.15;;
7051;SDS011;3567;52.444;13.556;2024-01-30T14:15:49;9.80;;;5.47;;
7051;SDS011;3567;52.444;13.556;2024-01-30T14:18:15;9.93;;;5.82;;
7051;SDS011;3567;52.444;13.556;2024-01-30T14:20:41;10.98;;;6.60;;
7051;SDS011;3567;52.444;13.556;2024-01-30T14:23:06;10.55;;;5.22;;
7051;SDS011;3567;52.444;13.556;2024-01-30T14:25:31;8.65;;;6.30;;
7051;SDS011;3567;52.444;13.556;2024-01-30T14:27:57;10.80;;;6.38;;
7051;SDS011;3567;52.444;13.556;2024-01-30T14:30:22;7.57;;;6.22;;
7051;SDS011;3567;52.444;13.556;2024-01-30T14:32:48;8.07;;;6.40;;
7051;SDS011;3567;52.444;13.556;2024-01-30T14:35:13;10.65;;;6.05;;
7051;SDS011;3567;52.444;13.556;2024-01-30T14:37:39;8.38;;;5.88;;
7051;SDS011;3567;52.444;13.556;2024-01-30T14:40:05;10.52;;;6.32;;
7051;SDS011;3567;52.444;13.556;2024-01-30T14:42:33;9.35;;;6.20;;